createdAt,value
2018-09-10T00:00:13.107Z,976.44
2018-09-10T00:01:13.235Z,976.40
2018-09-10T00:02:13.188Z,976.41
2018-09-10T00:03:13.242Z,976.45
2018-09-10T00:04:13.283Z,976.42
2018-09-10T00:05:13.353Z,976.48
2018-09-10T00:06:13.405Z,976.45
2018-09-10T00:07:13.444Z,976.46
2018-09-10T00:08:13.482Z,976.45
2018-09-10T00:09:13.535Z,976.49
2018-09-10T00:10:13.629Z,976.49
2018-09-10T00:11:13.635Z,976.48
2018-09-10T00:12:13.692Z,976.51
2018-09-10T00:13:13.732Z,976.54
2018-09-10T00:14:13.783Z,976.51
2018-09-10T00:15:13.854Z,976.53
2018-09-10T00:16:13.903Z,976.51
2018-09-10T00:17:13.948Z,976.48
2018-09-10T00:18:13.983Z,976.50
2018-09-10T00:19:14.029Z,976.54
2018-09-10T00:20:14.082Z,976.55
2018-09-10T00:21:14.182Z,976.51
2018-09-10T00:22:14.180Z,976.53
2018-09-10T00:23:14.229Z,976.54
2018-09-10T00:24:14.277Z,976.55
2018-09-10T00:25:15.282Z,976.56
2018-09-10T00:26:14.417Z,976.57
2018-09-10T00:27:14.428Z,976.55
2018-09-10T00:28:14.484Z,976.52
2018-09-10T00:29:14.530Z,976.51
2018-09-10T00:30:14.577Z,976.51
2018-09-10T00:31:14.646Z,976.47
2018-09-10T00:32:14.673Z,976.48
2018-09-10T00:33:14.756Z,976.48
2018-09-10T00:34:14.783Z,976.50
2018-09-10T00:35:14.830Z,976.52
2018-09-10T00:36:14.878Z,976.49
2018-09-10T00:37:14.946Z,976.49
2018-09-10T00:38:14.973Z,976.51
2018-09-10T00:39:15.020Z,976.47
2018-09-10T00:40:15.480Z,976.45
2018-09-10T00:41:15.120Z,976.46
2018-09-10T00:42:15.197Z,976.44
2018-09-10T00:43:15.239Z,976.43
2018-09-10T00:44:15.294Z,976.45
2018-09-10T00:45:15.319Z,976.47
2018-09-10T00:46:15.367Z,976.46
2018-09-10T00:47:15.415Z,976.45
2018-09-10T00:48:15.476Z,976.48
2018-09-10T00:49:15.537Z,976.50
2018-09-10T00:50:15.660Z,976.47
2018-09-10T00:51:15.613Z,976.47
2018-09-10T00:52:15.664Z,976.48
2018-09-10T00:53:15.720Z,976.46
2018-09-10T00:54:15.798Z,976.47
2018-09-10T00:55:15.818Z,976.53
2018-09-10T00:56:15.862Z,976.48
2018-09-10T00:57:15.927Z,976.53
2018-09-10T00:58:15.963Z,976.59
2018-09-10T00:59:16.031Z,976.61
2018-09-10T01:00:16.092Z,976.59
2018-09-10T01:01:16.110Z,976.60
2018-09-10T01:02:16.165Z,976.62
2018-09-10T01:03:16.205Z,976.58
2018-09-10T01:04:16.263Z,976.57
2018-09-10T01:05:16.331Z,976.61
2018-09-10T01:06:16.355Z,976.62
2018-09-10T01:07:16.408Z,976.60
2018-09-10T01:08:16.985Z,976.61
2018-09-10T01:09:16.506Z,976.60
2018-09-10T01:10:16.582Z,976.58
2018-09-10T01:11:16.701Z,976.58
2018-09-10T01:12:16.658Z,976.62
2018-09-10T01:13:16.706Z,976.60
2018-09-10T01:14:16.754Z,976.59
2018-09-10T01:15:16.822Z,976.61
2018-09-10T01:16:16.852Z,976.62
2018-09-10T01:17:16.902Z,976.65
2018-09-10T01:18:16.965Z,976.63
2018-09-10T01:19:17.009Z,976.59
2018-09-10T01:20:17.075Z,976.63
2018-09-10T01:21:17.106Z,976.55
2018-09-10T01:22:17.988Z,976.56
2018-09-10T01:23:17.203Z,976.58
2018-09-10T01:24:17.248Z,976.54
2018-09-10T01:25:17.320Z,976.55
2018-09-10T01:26:17.349Z,976.52
2018-09-10T01:27:17.453Z,976.53
2018-09-10T01:28:17.453Z,976.53
2018-09-10T01:29:17.494Z,976.53
2018-09-10T01:30:17.606Z,976.53
2018-09-10T01:31:17.614Z,976.52
2018-09-10T01:32:17.643Z,976.54
2018-09-10T01:33:17.698Z,976.54
2018-09-10T01:34:17.747Z,976.55
2018-09-10T01:35:17.796Z,976.52
2018-09-10T01:36:18.526Z,976.51
2018-09-10T01:37:18.510Z,976.56
2018-09-10T01:38:18.490Z,976.56
2018-09-10T01:39:17.994Z,976.58
2018-09-10T01:40:18.038Z,976.56
2018-09-10T01:41:18.125Z,976.59
2018-09-10T01:42:18.150Z,976.59
2018-09-10T01:43:18.189Z,976.60
2018-09-10T01:44:18.239Z,976.61
2018-09-10T01:45:18.288Z,976.57
2018-09-10T01:46:18.362Z,976.58
2018-09-10T01:47:18.383Z,976.59
2018-09-10T01:48:18.443Z,976.59
2018-09-10T01:49:18.483Z,976.60
2018-09-10T01:50:18.538Z,976.61
2018-09-10T01:51:18.616Z,976.61
2018-09-10T01:52:18.639Z,976.63
2018-09-10T01:53:18.683Z,976.64
2018-09-10T01:54:18.733Z,976.64
2018-09-10T01:55:19.501Z,976.63
2018-09-10T01:56:18.869Z,976.60
2018-09-10T01:57:18.899Z,976.64
2018-09-10T01:58:18.935Z,976.62
2018-09-10T01:59:18.992Z,976.61
2018-09-10T02:00:19.028Z,976.59
2018-09-10T02:01:19.081Z,976.63
2018-09-10T02:02:19.151Z,976.61
2018-09-10T02:03:19.197Z,976.64
2018-09-10T02:04:19.225Z,976.61
2018-09-10T02:05:19.274Z,976.64
2018-09-10T02:06:19.325Z,976.63
2018-09-10T02:07:19.380Z,976.63
2018-09-10T02:08:19.996Z,976.63
2018-09-10T02:09:19.486Z,976.63
2018-09-10T02:10:19.996Z,976.61
2018-09-10T02:11:19.580Z,976.61
2018-09-10T02:12:19.625Z,976.62
2018-09-10T02:13:19.696Z,976.61
2018-09-10T02:14:19.767Z,976.58
2018-09-10T02:15:19.772Z,976.58
2018-09-10T02:16:19.837Z,976.54
2018-09-10T02:17:19.872Z,976.49
2018-09-10T02:18:19.943Z,976.51
2018-09-10T02:19:19.973Z,976.52
2018-09-10T02:20:20.044Z,976.49
2018-09-10T02:21:20.070Z,976.51
2018-09-10T02:22:20.120Z,976.49
2018-09-10T02:23:20.184Z,976.47
2018-09-10T02:24:20.216Z,976.51
2018-09-10T02:25:20.265Z,976.52
2018-09-10T02:26:20.316Z,976.48
2018-09-10T02:27:20.413Z,976.53
2018-09-10T02:28:20.490Z,976.53
2018-09-10T02:29:20.550Z,976.53
2018-09-10T02:30:20.533Z,976.56
2018-09-10T02:31:21.000Z,976.54
2018-09-10T02:32:20.613Z,976.54
2018-09-10T02:33:20.678Z,976.55
2018-09-10T02:34:20.708Z,976.51
2018-09-10T02:35:20.766Z,976.55
2018-09-10T02:36:20.811Z,976.56
2018-09-10T02:37:20.884Z,976.55
2018-09-10T02:38:20.933Z,976.52
2018-09-10T02:39:20.962Z,976.48
2018-09-10T02:40:21.017Z,976.48
2018-09-10T02:41:21.063Z,976.44
2018-09-10T02:42:22.003Z,976.42
2018-09-10T02:43:21.157Z,976.41
2018-09-10T02:44:21.234Z,976.35
2018-09-10T02:45:22.003Z,976.39
2018-09-10T02:46:21.306Z,976.36
2018-09-10T02:47:21.355Z,976.34
2018-09-10T02:48:21.402Z,976.36
2018-09-10T02:49:21.476Z,976.35
2018-09-10T02:50:21.500Z,976.36
2018-09-10T02:51:21.565Z,976.38
2018-09-10T02:52:21.600Z,976.36
2018-09-10T02:53:22.503Z,976.35
2018-09-10T02:54:21.724Z,976.35
2018-09-10T02:55:21.748Z,976.36
2018-09-10T02:56:21.798Z,976.34
2018-09-10T02:57:21.845Z,976.37
2018-09-10T02:58:21.895Z,976.36
2018-09-10T02:59:21.970Z,976.38
2018-09-10T03:00:21.994Z,976.39
2018-09-10T03:01:22.049Z,976.38
2018-09-10T03:02:23.006Z,976.38
2018-09-10T03:03:22.143Z,976.39
2018-09-10T03:04:22.213Z,976.40
2018-09-10T03:05:22.257Z,976.37
2018-09-10T03:06:22.310Z,976.38
2018-09-10T03:07:22.338Z,976.37
2018-09-10T03:08:22.397Z,976.40
2018-09-10T03:09:22.437Z,976.39
2018-09-10T03:10:22.509Z,976.42
2018-09-10T03:11:22.538Z,976.41
2018-09-10T03:12:22.588Z,976.42
2018-09-10T03:13:23.109Z,976.42
2018-09-10T03:14:22.684Z,976.41
2018-09-10T03:15:22.762Z,976.43
2018-09-10T03:16:22.785Z,976.48
2018-09-10T03:17:22.927Z,976.42
2018-09-10T03:18:22.884Z,976.45
2018-09-10T03:19:22.930Z,976.46
2018-09-10T03:20:23.005Z,976.47
2018-09-10T03:21:23.035Z,976.42
2018-09-10T03:22:23.097Z,976.42
2018-09-10T03:23:23.144Z,976.43
2018-09-10T03:24:23.262Z,976.43
2018-09-10T03:25:23.224Z,976.41
2018-09-10T03:26:23.313Z,976.44
2018-09-10T03:27:23.325Z,976.43
2018-09-10T03:28:23.384Z,976.39
2018-09-10T03:29:23.438Z,976.39
2018-09-10T03:30:23.482Z,976.39
2018-09-10T03:31:23.544Z,976.39
2018-09-10T03:32:23.572Z,976.36
2018-09-10T03:33:23.675Z,976.34
2018-09-10T03:34:23.682Z,976.33
2018-09-10T03:35:23.720Z,976.34
2018-09-10T03:36:23.771Z,976.38
2018-09-10T03:37:23.816Z,976.40
2018-09-10T03:38:24.813Z,976.42
2018-09-10T03:39:23.916Z,976.41
2018-09-10T03:40:23.971Z,976.44
2018-09-10T03:41:24.015Z,976.45
2018-09-10T03:42:24.091Z,976.43
2018-09-10T03:43:24.118Z,976.45
2018-09-10T03:44:24.165Z,976.43
2018-09-10T03:45:24.240Z,976.48
2018-09-10T03:46:24.265Z,976.49
2018-09-10T03:47:24.355Z,976.51
2018-09-10T03:48:24.362Z,976.54
2018-09-10T03:49:24.410Z,976.56
2018-09-10T03:50:24.462Z,976.62
2018-09-10T03:51:24.513Z,976.61
2018-09-10T03:52:24.574Z,976.64
2018-09-10T03:53:24.609Z,976.65
2018-09-10T03:54:24.691Z,976.68
2018-09-10T03:55:24.712Z,976.73
2018-09-10T03:56:26.014Z,976.73
2018-09-10T03:57:24.800Z,976.73
2018-09-10T03:58:24.876Z,976.78
2018-09-10T03:59:24.922Z,976.77
2018-09-10T04:00:24.955Z,976.80
2018-09-10T04:01:25.003Z,976.78
2018-09-10T04:02:25.049Z,976.86
2018-09-10T04:03:25.097Z,976.84
2018-09-10T04:04:25.179Z,976.87
2018-09-10T04:05:25.199Z,976.87
2018-09-10T04:06:25.253Z,976.91
2018-09-10T04:07:25.292Z,976.85
2018-09-10T04:08:25.355Z,976.82
2018-09-10T04:09:25.443Z,976.83
2018-09-10T04:10:25.448Z,976.82
2018-09-10T04:11:25.495Z,976.81
2018-09-10T04:12:25.541Z,976.85
2018-09-10T04:13:25.601Z,976.84
2018-09-10T04:14:25.657Z,976.85
2018-09-10T04:15:25.710Z,976.83
2018-09-10T04:16:25.765Z,976.84
2018-09-10T04:17:25.796Z,976.83
2018-09-10T04:18:25.833Z,976.87
2018-09-10T04:19:25.887Z,976.89
2018-09-10T04:20:25.943Z,976.91
2018-09-10T04:21:26.055Z,976.93
2018-09-10T04:22:26.037Z,976.96
2018-09-10T04:23:26.085Z,976.96
2018-09-10T04:24:26.138Z,977.02
2018-09-10T04:25:26.184Z,977.03
2018-09-10T04:26:26.248Z,977.08
2018-09-10T04:27:27.019Z,977.09
2018-09-10T04:28:26.328Z,977.11
2018-09-10T04:29:26.384Z,977.12
2018-09-10T04:30:26.445Z,977.12
2018-09-10T04:31:26.492Z,977.12
2018-09-10T04:32:26.529Z,977.11
2018-09-10T04:33:26.573Z,977.14
2018-09-10T04:34:26.655Z,977.15
2018-09-10T04:35:26.697Z,977.15
2018-09-10T04:36:26.720Z,977.14
2018-09-10T04:37:26.776Z,977.16
2018-09-10T04:38:26.851Z,977.15
2018-09-10T04:39:26.868Z,977.21
2018-09-10T04:40:26.918Z,977.23
2018-09-10T04:41:27.011Z,977.24
2018-09-10T04:42:27.016Z,977.26
2018-09-10T04:43:27.094Z,977.29
2018-09-10T04:44:27.121Z,977.30
2018-09-10T04:45:27.176Z,977.29
2018-09-10T04:46:27.236Z,977.31
2018-09-10T04:47:27.263Z,977.32
2018-09-10T04:48:27.430Z,977.29
2018-09-10T04:49:27.360Z,977.29
2018-09-10T04:50:27.410Z,977.30
2018-09-10T04:51:27.491Z,977.30
2018-09-10T04:52:27.535Z,977.32
2018-09-10T04:53:27.565Z,977.27
2018-09-10T04:54:27.603Z,977.30
2018-09-10T04:55:27.700Z,977.31
2018-09-10T04:56:27.703Z,977.31
2018-09-10T04:57:27.780Z,977.32
2018-09-10T04:58:27.802Z,977.27
2018-09-10T04:59:27.848Z,977.28
2018-09-10T05:00:27.902Z,977.32
2018-09-10T05:01:27.947Z,977.23
2018-09-10T05:02:28.041Z,977.28
2018-09-10T05:03:28.049Z,977.31
2018-09-10T05:04:28.142Z,977.33
2018-09-10T05:05:28.149Z,977.36
2018-09-10T05:06:28.198Z,977.37
2018-09-10T05:07:28.272Z,977.38
2018-09-10T05:08:28.291Z,977.40
2018-09-10T05:09:28.341Z,977.46
2018-09-10T05:10:28.427Z,977.44
2018-09-10T05:11:28.454Z,977.47
2018-09-10T05:12:28.489Z,977.52
2018-09-10T05:13:28.562Z,977.51
2018-09-10T05:14:28.595Z,977.58
2018-09-10T05:15:28.648Z,977.60
2018-09-10T05:16:28.685Z,977.65
2018-09-10T05:17:28.741Z,977.63
2018-09-10T05:18:28.820Z,977.66
2018-09-10T05:19:28.831Z,977.63
2018-09-10T05:20:28.878Z,977.62
2018-09-10T05:21:28.955Z,977.61
2018-09-10T05:22:28.978Z,977.62
2018-09-10T05:23:29.049Z,977.62
2018-09-10T05:24:29.080Z,977.65
2018-09-10T05:25:29.148Z,977.61
2018-09-10T05:26:29.175Z,977.66
2018-09-10T05:27:29.223Z,977.67
2018-09-10T05:28:29.320Z,977.66
2018-09-10T05:29:29.327Z,977.67
2018-09-10T05:30:29.370Z,977.69
2018-09-10T05:31:29.435Z,977.68
2018-09-10T05:32:29.487Z,977.69
2018-09-10T05:33:29.546Z,977.70
2018-09-10T05:34:29.602Z,977.67
2018-09-10T05:35:29.622Z,977.72
2018-09-10T05:36:29.680Z,977.69
2018-09-10T05:37:29.738Z,977.70
2018-09-10T05:38:29.767Z,977.67
2018-09-10T05:39:29.846Z,977.74
2018-09-10T05:40:29.862Z,977.70
2018-09-10T05:41:29.973Z,977.72
2018-09-10T05:42:29.968Z,977.70
2018-09-10T05:43:30.009Z,977.76
2018-09-10T05:44:30.566Z,977.76
2018-09-10T05:45:30.129Z,977.76
2018-09-10T05:46:30.177Z,977.79
2018-09-10T05:47:30.230Z,977.77
2018-09-10T05:48:30.273Z,977.79
2018-09-10T05:49:30.311Z,977.84
2018-09-10T05:50:30.388Z,977.84
2018-09-10T05:51:30.483Z,977.80
2018-09-10T05:52:30.455Z,977.82
2018-09-10T05:53:30.522Z,977.86
2018-09-10T05:54:30.552Z,977.86
2018-09-10T05:55:30.639Z,977.88
2018-09-10T05:56:30.647Z,977.90
2018-09-10T05:57:30.697Z,977.86
2018-09-10T05:58:30.879Z,977.92
2018-09-10T05:59:30.794Z,977.90
2018-09-10T06:00:30.872Z,977.92
2018-09-10T06:01:30.901Z,977.89
2018-09-10T06:02:30.949Z,977.94
2018-09-10T06:03:30.993Z,978.02
2018-09-10T06:04:31.045Z,977.99
2018-09-10T06:05:31.158Z,978.01
2018-09-10T06:06:31.534Z,978.00
2018-09-10T06:07:31.201Z,978.01
2018-09-10T06:08:31.253Z,978.03
2018-09-10T06:09:31.296Z,978.02
2018-09-10T06:10:31.442Z,978.01
2018-09-10T06:11:31.396Z,978.00
2018-09-10T06:12:32.538Z,978.06
2018-09-10T06:13:31.495Z,978.07
2018-09-10T06:14:31.536Z,978.07
2018-09-10T06:15:31.619Z,978.07
2018-09-10T06:16:31.699Z,978.11
2018-09-10T06:17:31.682Z,978.10
2018-09-10T06:18:31.746Z,978.13
2018-09-10T06:19:31.886Z,978.11
2018-09-10T06:20:31.841Z,978.06
2018-09-10T06:21:31.907Z,978.10
2018-09-10T06:22:31.929Z,978.08
2018-09-10T06:23:31.984Z,978.04
2018-09-10T06:24:32.037Z,978.03
2018-09-10T06:25:32.091Z,978.02
2018-09-10T06:26:33.547Z,978.04
2018-09-10T06:27:32.180Z,977.99
2018-09-10T06:28:32.275Z,977.98
2018-09-10T06:29:32.275Z,977.95
2018-09-10T06:30:32.326Z,977.95
2018-09-10T06:31:32.382Z,977.93
2018-09-10T06:32:32.434Z,977.92
2018-09-10T06:33:32.500Z,977.91
2018-09-10T06:34:33.039Z,977.94
2018-09-10T06:35:32.596Z,977.92
2018-09-10T06:36:32.625Z,977.91
2018-09-10T06:37:32.691Z,977.94
2018-09-10T06:38:33.540Z,977.94
2018-09-10T06:39:32.770Z,977.91
2018-09-10T06:40:32.825Z,977.88
2018-09-10T06:41:32.881Z,977.91
2018-09-10T06:42:32.957Z,977.94
2018-09-10T06:43:32.973Z,977.92
2018-09-10T06:44:33.024Z,977.93
2018-09-10T06:45:33.078Z,977.98
2018-09-10T06:46:33.132Z,978.01
2018-09-10T06:47:33.194Z,978.03
2018-09-10T06:48:33.228Z,978.01
2018-09-10T06:49:33.303Z,978.00
2018-09-10T06:50:33.320Z,978.05
2018-09-10T06:51:33.370Z,978.05
2018-09-10T06:52:33.438Z,978.08
2018-09-10T06:53:33.496Z,978.10
2018-09-10T06:54:33.522Z,978.14
2018-09-10T06:55:33.569Z,978.16
2018-09-10T06:56:33.624Z,978.22
2018-09-10T06:57:33.690Z,978.17
2018-09-10T06:58:33.741Z,978.18
2018-09-10T06:59:33.789Z,978.22
2018-09-10T07:00:33.823Z,978.16
2018-09-10T07:01:33.874Z,978.19
2018-09-10T07:02:33.929Z,978.19
2018-09-10T07:03:33.992Z,978.17
2018-09-10T07:04:34.061Z,978.22
2018-09-10T07:05:34.079Z,978.21
2018-09-10T07:06:34.168Z,978.21
2018-09-10T07:07:34.192Z,978.20
2018-09-10T07:08:34.269Z,978.25
2018-09-10T07:09:34.304Z,978.25
2018-09-10T07:10:34.333Z,978.25
2018-09-10T07:11:34.383Z,978.24
2018-09-10T07:12:34.434Z,978.25
2018-09-10T07:13:34.492Z,978.30
2018-09-10T07:14:34.576Z,978.30
2018-09-10T07:15:34.686Z,978.33
2018-09-10T07:16:34.640Z,978.37
2018-09-10T07:17:34.698Z,978.36
2018-09-10T07:18:35.559Z,978.37
2018-09-10T07:19:34.836Z,978.38
2018-09-10T07:20:34.851Z,978.39
2018-09-10T07:21:34.903Z,978.43
2018-09-10T07:22:34.984Z,978.46
2018-09-10T07:23:35.004Z,978.44
2018-09-10T07:24:35.088Z,978.46
2018-09-10T07:25:35.114Z,978.48
2018-09-10T07:26:35.168Z,978.48
2018-09-10T07:27:35.214Z,978.50
2018-09-10T07:28:35.262Z,978.49
2018-09-10T07:29:35.405Z,978.49
2018-09-10T07:30:35.390Z,978.49
2018-09-10T07:31:35.421Z,978.51
2018-09-10T07:32:35.476Z,978.53
2018-09-10T07:33:35.530Z,978.54
2018-09-10T07:34:35.593Z,978.54
2018-09-10T07:35:35.661Z,978.51
2018-09-10T07:36:35.698Z,978.53
2018-09-10T07:37:35.745Z,978.54
2018-09-10T07:38:35.796Z,978.55
2018-09-10T07:39:35.845Z,978.54
2018-09-10T07:40:35.923Z,978.55
2018-09-10T07:41:35.951Z,978.53
2018-09-10T07:42:36.006Z,978.51
2018-09-10T07:43:36.083Z,978.51
2018-09-10T07:44:36.131Z,978.49
2018-09-10T07:45:36.185Z,978.47
2018-09-10T07:46:36.237Z,978.50
2018-09-10T07:47:36.284Z,978.44
2018-09-10T07:48:36.423Z,978.49
2018-09-10T07:49:36.380Z,978.45
2018-09-10T07:50:36.434Z,978.47
2018-09-10T07:51:36.517Z,978.50
2018-09-10T07:52:36.554Z,978.48
2018-09-10T07:53:36.598Z,978.44
2018-09-10T07:54:36.705Z,978.54
2018-09-10T07:55:36.714Z,978.59
2018-09-10T07:56:36.778Z,978.65
2018-09-10T07:57:36.836Z,978.62
2018-09-10T07:58:36.863Z,978.63
2018-09-10T07:59:36.932Z,978.62
2018-09-10T08:00:36.982Z,978.66
2018-09-10T08:01:37.047Z,978.64
2018-09-10T08:02:37.141Z,978.62
2018-09-10T08:03:37.159Z,978.65
2018-09-10T08:04:37.190Z,978.65
2018-09-10T08:05:37.242Z,978.66
2018-09-10T08:06:38.105Z,978.65
2018-09-10T08:07:37.356Z,978.66
2018-09-10T08:08:37.428Z,978.65
2018-09-10T08:09:37.487Z,978.66
2018-09-10T08:10:37.527Z,978.65
2018-09-10T08:11:37.572Z,978.64
2018-09-10T08:12:37.624Z,978.65
2018-09-10T08:13:37.703Z,978.62
2018-09-10T08:14:37.739Z,978.65
2018-09-10T08:15:37.784Z,978.69
2018-09-10T08:16:37.894Z,978.64
2018-09-10T08:17:37.929Z,978.66
2018-09-10T08:18:38.573Z,978.66
2018-09-10T08:19:38.006Z,978.67
2018-09-10T08:20:38.064Z,978.71
2018-09-10T08:21:38.217Z,978.69
2018-09-10T08:22:38.187Z,978.70
2018-09-10T08:23:38.230Z,978.71
2018-09-10T08:24:38.302Z,978.70
2018-09-10T08:25:38.391Z,978.70
2018-09-10T08:26:38.385Z,978.72
2018-09-10T08:27:38.438Z,978.71
2018-09-10T08:28:38.560Z,978.70
2018-09-10T08:29:38.564Z,978.70
2018-09-10T08:30:38.619Z,978.70
2018-09-10T08:31:38.660Z,978.68
2018-09-10T08:32:38.711Z,978.73
2018-09-10T08:33:38.786Z,978.68
2018-09-10T08:34:38.848Z,978.68
2018-09-10T08:35:38.876Z,978.72
2018-09-10T08:36:38.930Z,978.68
2018-09-10T08:37:39.000Z,978.68
2018-09-10T08:38:39.041Z,978.76
2018-09-10T08:39:39.129Z,978.74
2018-09-10T08:40:39.154Z,978.78
2018-09-10T08:41:40.084Z,978.76
2018-09-10T08:42:39.279Z,978.78
2018-09-10T08:43:39.325Z,978.79
2018-09-10T08:44:39.404Z,978.83
2018-09-10T08:45:39.458Z,978.80
2018-09-10T08:46:39.489Z,978.78
2018-09-10T08:47:39.537Z,978.79
2018-09-10T08:48:40.086Z,978.72
2018-09-10T08:49:39.665Z,978.77
2018-09-10T08:50:39.729Z,978.70
2018-09-10T08:51:39.757Z,978.77
2018-09-10T08:52:39.813Z,978.76
2018-09-10T08:53:39.868Z,978.77
2018-09-10T08:54:40.135Z,978.82
2018-09-10T08:55:40.165Z,978.81
2018-09-10T08:56:40.039Z,978.80
2018-09-10T08:57:40.091Z,978.78
2018-09-10T08:58:40.152Z,978.77
2018-09-10T08:59:40.203Z,978.76
2018-09-10T09:00:40.297Z,978.74
2018-09-10T09:01:40.314Z,978.77
2018-09-10T09:02:40.377Z,978.70
2018-09-10T09:03:40.420Z,978.76
2018-09-10T09:04:40.476Z,978.76
2018-09-10T09:05:40.566Z,978.73
2018-09-10T09:06:40.669Z,978.74
2018-09-10T09:07:40.646Z,978.76
2018-09-10T09:08:41.114Z,978.80
2018-09-10T09:09:40.762Z,978.79
2018-09-10T09:10:40.809Z,978.77
2018-09-10T09:11:40.907Z,978.81
2018-09-10T09:12:40.922Z,978.84
2018-09-10T09:13:41.067Z,978.84
2018-09-10T09:14:41.034Z,978.82
2018-09-10T09:15:41.088Z,978.77
2018-09-10T09:16:41.169Z,978.79
2018-09-10T09:17:41.219Z,978.79
2018-09-10T09:18:41.252Z,978.78
2018-09-10T09:19:41.324Z,978.78
2018-09-10T09:20:41.453Z,978.75
2018-09-10T09:21:41.446Z,978.74
2018-09-10T09:22:41.513Z,978.71
2018-09-10T09:23:41.600Z,978.76
2018-09-10T09:24:41.591Z,978.72
2018-09-10T09:25:41.642Z,978.70
2018-09-10T09:26:41.696Z,978.69
2018-09-10T09:27:42.603Z,978.67
2018-09-10T09:28:42.607Z,978.63
2018-09-10T09:29:41.865Z,978.62
2018-09-10T09:30:41.917Z,978.62
2018-09-10T09:31:41.990Z,978.63
2018-09-10T09:32:42.066Z,978.57
2018-09-10T09:33:42.106Z,978.59
2018-09-10T09:34:42.143Z,978.58
2018-09-10T09:35:42.196Z,978.56
2018-09-10T09:36:42.255Z,978.63
2018-09-10T09:37:42.315Z,978.61
2018-09-10T09:38:42.382Z,978.59
2018-09-10T09:39:42.489Z,978.60
2018-09-10T09:40:42.476Z,978.63
2018-09-10T09:41:42.531Z,978.69
2018-09-10T09:42:42.593Z,978.67
2018-09-10T09:43:42.662Z,978.68
2018-09-10T09:44:42.701Z,978.67
2018-09-10T09:45:43.620Z,978.68
2018-09-10T09:46:42.823Z,978.71
2018-09-10T09:47:42.877Z,978.73
2018-09-10T09:48:42.943Z,978.72
2018-09-10T09:49:42.996Z,978.71
2018-09-10T09:50:43.042Z,978.69
2018-09-10T09:51:43.097Z,978.72
2018-09-10T09:52:43.153Z,978.71
2018-09-10T09:53:43.238Z,978.69
2018-09-10T09:54:43.261Z,978.71
2018-09-10T09:55:43.318Z,978.73
2018-09-10T09:56:43.483Z,978.68
2018-09-10T09:57:43.424Z,978.72
2018-09-10T09:58:43.601Z,978.73
2018-09-10T09:59:43.545Z,978.74
2018-09-10T10:00:43.594Z,978.74
2018-09-10T10:01:43.668Z,978.72
2018-09-10T10:02:44.620Z,978.73
2018-09-10T10:03:43.767Z,978.73
2018-09-10T10:04:43.812Z,978.72
2018-09-10T10:05:43.873Z,978.75
2018-09-10T10:06:43.934Z,978.75
2018-09-10T10:07:44.638Z,978.67
2018-09-10T10:08:44.043Z,978.68
2018-09-10T10:09:44.117Z,978.72
2018-09-10T10:10:44.165Z,978.71
2018-09-10T10:11:44.244Z,978.67
2018-09-10T10:12:44.263Z,978.66
2018-09-10T10:13:44.311Z,978.65
2018-09-10T10:14:44.371Z,978.65
2018-09-10T10:15:44.485Z,978.60
2018-09-10T10:16:44.495Z,978.64
2018-09-10T10:17:44.618Z,978.62
2018-09-10T10:18:44.600Z,978.61
2018-09-10T10:19:44.683Z,978.58
2018-09-10T10:20:45.129Z,978.61
2018-09-10T10:21:44.764Z,978.59
2018-09-10T10:22:44.824Z,978.58
2018-09-10T10:23:44.867Z,978.55
2018-09-10T10:24:45.038Z,978.56
2018-09-10T10:25:44.979Z,978.55
2018-09-10T10:26:45.041Z,978.54
2018-09-10T10:27:45.089Z,978.53
2018-09-10T10:28:45.664Z,978.55
2018-09-10T10:29:45.659Z,978.53
2018-09-10T10:30:45.257Z,978.57
2018-09-10T10:31:45.322Z,978.54
2018-09-10T10:32:45.392Z,978.55
2018-09-10T10:33:45.456Z,978.53
2018-09-10T10:34:45.479Z,978.53
2018-09-10T10:35:45.536Z,978.53
2018-09-10T10:36:45.593Z,978.50
2018-09-10T10:37:45.679Z,978.46
2018-09-10T10:38:45.715Z,978.48
2018-09-10T10:39:45.759Z,978.49
2018-09-10T10:40:45.901Z,978.46
2018-09-10T10:41:45.868Z,978.44
2018-09-10T10:42:45.924Z,978.47
2018-09-10T10:43:45.983Z,978.49
2018-09-10T10:44:46.045Z,978.49
2018-09-10T10:45:46.123Z,978.52
2018-09-10T10:46:46.158Z,978.54
2018-09-10T10:47:46.206Z,978.51
2018-09-10T10:48:47.142Z,978.56
2018-09-10T10:49:47.145Z,978.53
2018-09-10T10:50:46.416Z,978.55
2018-09-10T10:51:46.432Z,978.53
2018-09-10T10:52:46.497Z,978.54
2018-09-10T10:53:46.585Z,978.54
2018-09-10T10:54:46.598Z,978.56
2018-09-10T10:55:46.675Z,978.53
2018-09-10T10:56:46.746Z,978.53
2018-09-10T10:57:46.770Z,978.53
2018-09-10T10:58:46.828Z,978.51
2018-09-10T10:59:47.647Z,978.54
2018-09-10T11:00:46.935Z,978.56
2018-09-10T11:01:47.027Z,978.53
2018-09-10T11:02:47.057Z,978.54
2018-09-10T11:03:47.102Z,978.50
2018-09-10T11:04:47.174Z,978.52
2018-09-10T11:05:47.214Z,978.49
2018-09-10T11:06:47.293Z,978.50
2018-09-10T11:07:47.332Z,978.50
2018-09-10T11:08:47.391Z,978.50
2018-09-10T11:09:47.457Z,978.51
2018-09-10T11:10:47.496Z,978.48
2018-09-10T11:11:47.579Z,978.47
2018-09-10T11:12:48.159Z,978.46
2018-09-10T11:13:47.681Z,978.45
2018-09-10T11:14:47.720Z,978.43
2018-09-10T11:15:47.784Z,978.43
2018-09-10T11:16:47.912Z,978.44
2018-09-10T11:17:47.897Z,978.44
2018-09-10T11:18:47.946Z,978.48
2018-09-10T11:19:48.021Z,978.45
2018-09-10T11:20:48.061Z,978.49
2018-09-10T11:21:48.125Z,978.44
2018-09-10T11:22:48.212Z,978.47
2018-09-10T11:23:48.268Z,978.44
2018-09-10T11:24:48.288Z,978.45
2018-09-10T11:25:48.359Z,978.41
2018-09-10T11:26:48.411Z,978.44
2018-09-10T11:27:48.514Z,978.38
2018-09-10T11:28:48.541Z,978.41
2018-09-10T11:29:48.570Z,978.39
2018-09-10T11:30:48.636Z,978.40
2018-09-10T11:31:48.685Z,978.40
2018-09-10T11:32:48.736Z,978.39
2018-09-10T11:33:48.829Z,978.39
2018-09-10T11:34:48.854Z,978.41
2018-09-10T11:35:48.911Z,978.41
2018-09-10T11:36:48.978Z,978.38
2018-09-10T11:37:49.027Z,978.38
2018-09-10T11:38:49.122Z,978.38
2018-09-10T11:39:49.141Z,978.43
2018-09-10T11:40:49.199Z,978.43
2018-09-10T11:41:49.258Z,978.45
2018-09-10T11:42:49.315Z,978.44
2018-09-10T11:43:49.397Z,978.42
2018-09-10T11:44:49.442Z,978.42
2018-09-10T11:45:50.171Z,978.40
2018-09-10T11:46:49.544Z,978.38
2018-09-10T11:47:49.602Z,978.40
2018-09-10T11:48:49.699Z,978.40
2018-09-10T11:49:49.726Z,978.42
2018-09-10T11:50:49.777Z,978.41
2018-09-10T11:51:49.848Z,978.40
2018-09-10T11:52:49.880Z,978.41
2018-09-10T11:53:49.938Z,978.41
2018-09-10T11:54:50.002Z,978.38
2018-09-10T11:55:50.111Z,978.41
2018-09-10T11:56:50.140Z,978.37
2018-09-10T11:57:50.171Z,978.34
2018-09-10T11:58:50.222Z,978.35
2018-09-10T11:59:50.286Z,978.30
2018-09-10T12:00:50.356Z,978.30
2018-09-10T12:01:50.458Z,978.33
2018-09-10T12:02:50.479Z,978.35
2018-09-10T12:03:50.502Z,978.35
2018-09-10T12:04:50.560Z,978.33
2018-09-10T12:05:50.610Z,978.34
2018-09-10T12:06:50.709Z,978.37
2018-09-10T12:07:50.727Z,978.33
2018-09-10T12:08:50.788Z,978.32
2018-09-10T12:09:50.837Z,978.37
2018-09-10T12:10:50.903Z,978.36
2018-09-10T12:11:51.054Z,978.34
2018-09-10T12:12:51.003Z,978.34
2018-09-10T12:13:51.061Z,978.35
2018-09-10T12:14:51.125Z,978.38
2018-09-10T12:15:51.174Z,978.39
2018-09-10T12:16:51.288Z,978.33
2018-09-10T12:17:51.287Z,978.35
2018-09-10T12:18:51.379Z,978.36
2018-09-10T12:19:51.398Z,978.39
2018-09-10T12:20:51.457Z,978.38
2018-09-10T12:21:51.532Z,978.43
2018-09-10T12:22:51.570Z,978.45
2018-09-10T12:23:51.642Z,978.48
2018-09-10T12:24:51.686Z,978.43
2018-09-10T12:25:51.759Z,978.55
2018-09-10T12:26:51.798Z,978.55
2018-09-10T12:27:51.850Z,978.53
2018-09-10T12:28:51.914Z,978.48